| time (UTC) | temp C | wind direction | speed KPH | gust KPH | rain 1hr cm | rain 24hr cm | rain mn cm | humidity % | barometer mb |
| 20260507071538 | 11 | 212 | 0.0 | 0.0 | 0.00 | 1.17 | 0.56 | 84 | 1010.5 |
| 20260507070051 | 11 | 213 | 0.0 | 0.0 | 0.08 | 1.17 | 0.56 | 84 | 1010.5 |
| 20260507064538 | 11 | 212 | 0.0 | 0.0 | 0.10 | 1.17 | 0.56 | 85 | 1010.4 |
| 20260507063036 | 11 | 212 | 0.0 | 0.0 | 0.13 | 1.17 | 0.56 | 85 | 1010.6 |
| 20260507061535 | 11 | 212 | 0.0 | 1.6 | 0.13 | 1.14 | 0.53 | 85 | 1010.6 |
| 20260507060034 | 11 | 214 | 0.0 | 1.6 | 0.08 | 1.09 | 0.48 | 85 | 1010.4 |
| 20260507054530 | 11 | 255 | 0.0 | 1.6 | 0.10 | 1.07 | 0.46 | 85 | 1010.4 |
| 20260507053029 | 11 | 328 | 0.0 | 3.2 | 0.20 | 1.04 | 0.43 | 85 | 1010.7 |
| 20260507051536 | 11 | 222 | 0.0 | 3.2 | 0.30 | 1.02 | 0.41 | 84 | 1010.6 |
| 20260507050025 | 11 | 227 | 0.0 | 4.8 | 0.38 | 1.02 | 0.41 | 84 | 1010.5 |
| 20260507044525 | 12 | 228 | 0.0 | 4.8 | 0.36 | 0.94 | 0.33 | 85 | 1010.4 |
| 20260507043021 | 12 | 239 | 0.0 | 11.3 | 0.25 | 0.84 | 0.23 | 85 | 1010.1 |
| 20260507041518 | 12 | 31 | 0.0 | 4.8 | 0.13 | 0.71 | 0.10 | 85 | 1009.8 |
| 20260507040013 | 13 | 29 | 1.6 | 6.4 | 0.03 | 0.61 | 0.61 | 84 | 1009.7 |
| 20260507034511 | 14 | 324 | 0.0 | 4.8 | 0.00 | 0.58 | 0.58 | 82 | 1009.3 |
| 20260507033009 | 14 | 311 | 0.0 | 3.2 | 0.00 | 0.58 | 0.58 | 82 | 1009.8 |
| 20260507031510 | 15 | 306 | 0.0 | 4.8 | 0.00 | 0.58 | 0.58 | 83 | 1009.2 |
| 20260507030004 | 15 | 212 | 1.6 | 6.4 | 0.00 | 0.58 | 0.58 | 83 | 1009.4 |
| 20260507024502 | 15 | 223 | 1.6 | 8.0 | 0.00 | 0.58 | 0.58 | 82 | 1009.1 |
| 20260507023002 | 15 | 228 | 1.6 | 6.4 | 0.00 | 0.58 | 0.58 | 82 | 1009.0 |
| 20260507021602 | 15 | 248 | 1.6 | 9.7 | 0.03 | 0.58 | 0.58 | 82 | 1008.8 |
| 20260507020059 | 15 | 228 | 3.2 | 14.5 | 0.03 | 0.58 | 0.58 | 82 | 1009.1 |
| 20260507014559 | 16 | 277 | 1.6 | 6.4 | 0.05 | 0.58 | 0.58 | 84 | 1009.2 |
| 20260507013056 | 16 | 221 | 1.6 | 11.3 | 0.08 | 0.58 | 0.58 | 84 | 1009.3 |
| 20260507011552 | 16 | 214 | 3.2 | 8.0 | 0.10 | 0.56 | 0.56 | 83 | 1009.0 |
| 20260507010108 | 17 | 212 | 1.6 | 12.9 | 0.15 | 0.56 | 0.56 | 83 | 1008.9 |
| 20260507004549 | 18 | 295 | 1.6 | 6.4 | 0.13 | 0.53 | 0.53 | 84 | 1008.3 |
| 20260507003048 | 18 | 257 | 0.0 | 3.2 | 0.10 | 0.51 | 0.51 | 84 | 1008.3 |
| 20260507001554 | 19 | 225 | 1.6 | 6.4 | 0.03 | 0.43 | 0.43 | 82 | 1007.9 |
| 20260507000048 | 19 | 225 | 0.0 | 4.8 | 0.00 | 0.41 | 0.41 | 81 | 1007.4 |
| 20260506234545 | 19 | 242 | 0.0 | 3.2 | 0.00 | 0.41 | 0.41 | 81 | 1007.2 |
| 20260506233057 | 20 | 240 | 0.0 | 4.8 | 0.00 | 0.41 | 0.41 | 80 | 1007.0 |
| 20260506231545 | 20 | 221 | 0.0 | 3.2 | 0.00 | 0.41 | 0.41 | 80 | 1007.0 |
| 20260506230046 | 20 | 46 | 0.0 | 4.8 | 0.00 | 0.41 | 0.41 | 79 | 1007.0 |
| 20260506224542 | 20 | 259 | 1.6 | 6.4 | 0.00 | 0.41 | 0.41 | 80 | 1007.1 |
| 20260506223045 | 20 | 253 | 0.0 | 4.8 | 0.00 | 0.41 | 0.41 | 81 | 1006.9 |
| 20260506221546 | 20 | 247 | 0.0 | 3.2 | 0.00 | 0.41 | 0.41 | 80 | 1006.9 |
| 20260506220049 | 20 | 249 | 0.0 | 1.6 | 0.00 | 0.41 | 0.41 | 80 | 1006.7 |
| 20260506214540 | 20 | 229 | 0.0 | 1.6 | 0.00 | 0.41 | 0.41 | 80 | 1006.8 |
| 20260506213040 | 20 | 256 | 0.0 | 1.6 | 0.00 | 0.41 | 0.41 | 79 | 1006.6 |
| 20260506211547 | 21 | 212 | 0.0 | 1.6 | 0.00 | 0.41 | 0.41 | 79 | 1006.5 |
| 20260506210037 | 20 | 274 | 0.0 | 3.2 | 0.00 | 0.41 | 0.41 | 81 | 1006.2 |
| 20260506204534 | 19 | 280 | 0.0 | 3.2 | 0.00 | 0.41 | 0.41 | 81 | 1006.2 |
| 20260506203034 | 20 | 288 | 0.0 | 3.2 | 0.00 | 0.41 | 0.41 | 81 | 1006.3 |
| 20260506201534 | 19 | 252 | 3.2 | 9.7 | 0.00 | 0.41 | 0.41 | 81 | 1006.3 |
| 20260506200032 | 19 | 255 | 1.6 | 4.8 | 0.00 | 0.41 | 0.41 | 81 | 1006.1 |
| 20260506194535 | 19 | 6 | 0.0 | 8.0 | 0.00 | 0.41 | 0.41 | 81 | 1006.3 |
| 20260506193033 | 19 | 356 | 1.6 | 11.3 | 0.00 | 0.41 | 0.41 | 81 | 1006.5 |
| 20260506191529 | 19 | 201 | 3.2 | 12.9 | 0.00 | 0.41 | 0.41 | 81 | 1006.5 |
| 20260506190028 | 19 | 290 | 0.0 | 11.3 | 0.00 | 0.41 | 0.41 | 82 | 1006.6 |
| 20260506184526 | 19 | 256 | 4.8 | 9.7 | 0.00 | 0.41 | 0.41 | 81 | 1006.7 |
| 20260506183024 | 18 | 246 | 1.6 | 9.7 | 0.00 | 0.41 | 0.41 | 83 | 1006.8 |
| 20260506181524 | 18 | 30 | 1.6 | 8.0 | 0.00 | 0.41 | 0.41 | 84 | 1007.0 |
| 20260506180022 | 17 | 56 | 1.6 | 4.8 | 0.00 | 0.41 | 0.41 | 84 | 1007.1 |
| 20260506174521 | 17 | 279 | 1.6 | 8.0 | 0.00 | 0.41 | 0.41 | 85 | 1007.3 |
| 20260506173129 | 17 | 56 | 0.0 | 4.8 | 0.00 | 0.41 | 0.41 | 85 | 1007.2 |
| 20260506171521 | 16 | 229 | 3.2 | 9.7 | 0.00 | 0.41 | 0.41 | 85 | 1007.2 |
| 20260506170022 | 16 | 360 | 3.2 | 9.7 | 0.00 | 0.41 | 0.41 | 85 | 1007.0 |
| 20260506164517 | 16 | 308 | 1.6 | 6.4 | 0.03 | 0.41 | 0.41 | 85 | 1007.1 |
| 20260506163022 | 16 | 73 | 1.6 | 4.8 | 0.05 | 0.41 | 0.41 | 84 | 1007.2 |
| 20260506161516 | 17 | 311 | 1.6 | 8.0 | 0.10 | 0.41 | 0.41 | 84 | 1007.5 |
| 20260506160015 | 17 | 345 | 0.0 | 4.8 | 0.13 | 0.41 | 0.41 | 84 | 1007.1 |
| 20260506154515 | 16 | 39 | 1.6 | 8.0 | 0.15 | 0.38 | 0.38 | 84 | 1006.8 |
| 20260506153013 | 16 | 194 | 0.0 | 8.0 | 0.18 | 0.36 | 0.36 | 84 | 1007.7 |
| 20260506151514 | 16 | 8 | 0.0 | 4.8 | 0.13 | 0.30 | 0.30 | 84 | 1008.2 |
| 20260506150013 | 16 | 36 | 0.0 | 6.4 | 0.13 | 0.28 | 0.28 | 84 | 1008.2 |
| 20260506144524 | 16 | 79 | 0.0 | 6.4 | 0.15 | 0.23 | 0.23 | 84 | 1008.1 |
| 20260506143011 | 16 | 172 | 0.0 | 4.8 | 0.13 | 0.18 | 0.18 | 84 | 1007.8 |
| 20260506141511 | 16 | 200 | 0.0 | 1.6 | 0.15 | 0.18 | 0.18 | 84 | 1008.0 |
| 20260506140010 | 16 | 256 | 0.0 | 1.6 | 0.15 | 0.15 | 0.15 | 84 | 1008.0 |
| 20260506134507 | 17 | 225 | 0.0 | 3.2 | 0.08 | 0.08 | 0.08 | 84 | 1008.0 |
| 20260506133005 | 17 | 250 | 0.0 | 3.2 | 0.05 | 0.05 | 0.05 | 83 | 1008.0 |
| 20260506131504 | 17 | 245 | 0.0 | 3.2 | 0.03 | 0.03 | 0.03 | 82 | 1008.0 |
| 20260506130003 | 17 | 215 | 0.0 | 3.2 | 0.00 | 0.00 | 0.00 | 81 | 1008.1 |
| 20260506124501 | 17 | 172 | 0.0 | 3.2 | 0.00 | 0.00 | 0.00 | 81 | 1008.1 |
| 20260506123102 | 17 | 302 | 0.0 | 4.8 | 0.00 | 0.00 | 0.00 | 80 | 1008.3 |
| 20260506121601 | 17 | 249 | 0.0 | 6.4 | 0.00 | 0.00 | 0.00 | 80 | 1008.4 |
| 20260506120104 | 17 | 264 | 0.0 | 6.4 | 0.00 | 0.00 | 0.00 | 80 | 1008.0 |
| 20260506114557 | 17 | 43 | 0.0 | 8.0 | 0.00 | 0.00 | 0.00 | 79 | 1007.8 |
| 20260506113056 | 18 | 25 | 1.6 | 4.8 | 0.00 | 0.00 | 0.00 | 77 | 1007.8 |
| 20260506111555 | 18 | 249 | 1.6 | 4.8 | 0.00 | 0.00 | 0.00 | 77 | 1007.7 |
| 20260506110054 | 18 | 262 | 0.0 | 4.8 | 0.00 | 0.00 | 0.00 | 77 | 1007.4 |
| 20260506104559 | 18 | 266 | 0.0 | 9.7 | 0.00 | 0.00 | 0.00 | 76 | 1007.2 |
| 20260506103054 | 18 | 273 | 1.6 | 4.8 | 0.00 | 0.00 | 0.00 | 76 | 1007.3 |
| 20260506101550 | 18 | 75 | 0.0 | 6.4 | 0.00 | 0.00 | 0.00 | 75 | 1007.1 |
| 20260506100104 | 18 | 349 | 0.0 | 8.0 | 0.00 | 0.00 | 0.00 | 75 | 1007.1 |
| 20260506094550 | 18 | 47 | 0.0 | 4.8 | 0.00 | 0.00 | 0.00 | 74 | 1007.1 |
| 20260506093046 | 18 | 91 | 0.0 | 3.2 | 0.00 | 0.00 | 0.00 | 74 | 1007.0 |
| 20260506091544 | 18 | 90 | 0.0 | 4.8 | 0.00 | 0.00 | 0.00 | 73 | 1007.2 |
| 20260506090043 | 18 | 122 | 0.0 | 9.7 | 0.00 | 0.00 | 0.00 | 72 | 1007.3 |
| 20260506084541 | 18 | 6 | 0.0 | 8.0 | 0.00 | 0.00 | 0.00 | 71 | 1007.4 |
| 20260506083040 | 18 | 34 | 0.0 | 6.4 | 0.00 | 0.00 | 0.00 | 70 | 1007.3 |
| 20260506081543 | 18 | 240 | 1.6 | 3.2 | 0.00 | 0.00 | 0.00 | 69 | 1007.3 |
| 20260506073031 | 19 | 181 | 0.0 | 3.2 | 0.00 | 0.00 | 0.00 | 66 | 1007.6 |